sensor_id;sensor_type;location;lat;lon;timestamp;pressure;altitude;pressure_sealevel;temperature;humidity
12897;BME280;6516;35.028;32.372;2023-03-19T00:02:07;99490.56;;;11.32;100.00
12897;BME280;6516;35.028;32.372;2023-03-19T00:04:35;99490.56;;;11.32;100.00
12897;BME280;6516;35.028;32.372;2023-03-19T00:07:03;99486.16;;;11.33;100.00
12897;BME280;6516;35.028;32.372;2023-03-19T00:09:32;99483.59;;;11.30;100.00
12897;BME280;6516;35.028;32.372;2023-03-19T00:12:02;99477.53;;;11.28;100.00
12897;BME280;6516;35.028;32.372;2023-03-19T00:14:29;99480.25;;;11.25;100.00
12897;BME280;6516;35.028;32.372;2023-03-19T00:16:57;99480.31;;;11.23;100.00
12897;BME280;6516;35.028;32.372;2023-03-19T00:19:26;99469.00;;;11.20;100.00
12897;BME280;6516;35.028;32.372;2023-03-19T00:21:53;99479.41;;;11.25;100.00
12897;BME280;6516;35.028;32.372;2023-03-19T00:24:22;99473.97;;;11.29;100.00
12897;BME280;6516;35.028;32.372;2023-03-19T00:26:51;99466.00;;;11.32;100.00
12897;BME280;6516;35.028;32.372;2023-03-19T00:29:19;99468.47;;;11.37;100.00
12897;BME280;6516;35.028;32.372;2023-03-19T00:31:47;99466.72;;;11.37;100.00
12897;BME280;6516;35.028;32.372;2023-03-19T00:34:16;99462.19;;;11.41;100.00
12897;BME280;6516;35.028;32.372;2023-03-19T00:36:44;99463.63;;;11.51;100.00
12897;BME280;6516;35.028;32.372;2023-03-19T00:39:12;99459.97;;;11.55;100.00
12897;BME280;6516;35.028;32.372;2023-03-19T00:41:40;99472.13;;;11.59;100.00
12897;BME280;6516;35.028;32.372;2023-03-19T00:44:16;99465.91;;;11.63;100.00
12897;BME280;6516;35.028;32.372;2023-03-19T00:46:44;99471.16;;;11.63;100.00
12897;BME280;6516;35.028;32.372;2023-03-19T00:49:12;99464.88;;;11.67;100.00
12897;BME280;6516;35.028;32.372;2023-03-19T00:51:40;99464.22;;;11.60;100.00
12897;BME280;6516;35.028;32.372;2023-03-19T00:54:10;99464.19;;;11.62;100.00
12897;BME280;6516;35.028;32.372;2023-03-19T00:56:38;99468.63;;;11.60;100.00
12897;BME280;6516;35.028;32.372;2023-03-19T00:59:06;99466.13;;;11.55;100.00
12897;BME280;6516;35.028;32.372;2023-03-19T01:01:35;99463.63;;;11.51;100.00
12897;BME280;6516;35.028;32.372;2023-03-19T01:04:04;99453.06;;;11.51;100.00
12897;BME280;6516;35.028;32.372;2023-03-19T01:06:32;99451.13;;;11.56;100.00
12897;BME280;6516;35.028;32.372;2023-03-19T01:09:00;99449.00;;;11.41;100.00
12897;BME280;6516;35.028;32.372;2023-03-19T01:11:28;99448.41;;;11.32;100.00
12897;BME280;6516;35.028;32.372;2023-03-19T01:13:56;99448.31;;;11.36;100.00
12897;BME280;6516;35.028;32.372;2023-03-19T01:16:24;99449.19;;;11.36;100.00
12897;BME280;6516;35.028;32.372;2023-03-19T01:18:53;99446.13;;;11.48;100.00
12897;BME280;6516;35.028;32.372;2023-03-19T01:21:21;99443.44;;;11.50;100.00
12897;BME280;6516;35.028;32.372;2023-03-19T01:23:49;99434.47;;;11.55;100.00
12897;BME280;6516;35.028;32.372;2023-03-19T01:26:17;99428.97;;;11.63;100.00
12897;BME280;6516;35.028;32.372;2023-03-19T01:28:45;99432.38;;;11.66;100.00
12897;BME280;6516;35.028;32.372;2023-03-19T01:31:13;99437.59;;;11.68;100.00
12897;BME280;6516;35.028;32.372;2023-03-19T01:33:41;99438.44;;;11.70;100.00
12897;BME280;6516;35.028;32.372;2023-03-19T01:36:13;99447.09;;;11.73;100.00
12897;BME280;6516;35.028;32.372;2023-03-19T01:38:41;99443.53;;;11.74;100.00
12897;BME280;6516;35.028;32.372;2023-03-19T01:41:08;99438.16;;;11.77;100.00
12897;BME280;6516;35.028;32.372;2023-03-19T01:43:36;99439.88;;;11.78;100.00
12897;BME280;6516;35.028;32.372;2023-03-19T01:46:06;99439.84;;;11.80;100.00
12897;BME280;6516;35.028;32.372;2023-03-19T01:48:40;99438.75;;;11.85;100.00
12897;BME280;6516;35.028;32.372;2023-03-19T01:51:15;99443.91;;;11.88;100.00
12897;BME280;6516;35.028;32.372;2023-03-19T01:53:46;99438.81;;;11.84;100.00
12897;BME280;6516;35.028;32.372;2023-03-19T01:56:20;99438.81;;;11.84;100.00
12897;BME280;6516;35.028;32.372;2023-03-19T01:58:52;99439.72;;;11.83;100.00
12897;BME280;6516;35.028;32.372;2023-03-19T02:01:22;99437.91;;;11.85;100.00
12897;BME280;6516;35.028;32.372;2023-03-19T02:03:51;99444.88;;;11.86;100.00
12897;BME280;6516;35.028;32.372;2023-03-19T02:06:22;99439.50;;;11.89;100.00
12897;BME280;6516;35.028;32.372;2023-03-19T02:08:51;99444.56;;;11.95;100.00
12897;BME280;6516;35.028;32.372;2023-03-19T02:11:20;99430.25;;;12.02;100.00
12897;BME280;6516;35.028;32.372;2023-03-19T02:13:48;99430.09;;;12.06;100.00
12897;BME280;6516;35.028;32.372;2023-03-19T02:16:16;99431.66;;;12.12;100.00
12897;BME280;6516;35.028;32.372;2023-03-19T02:18:44;99432.41;;;12.15;100.00
12897;BME280;6516;35.028;32.372;2023-03-19T02:21:14;99427.81;;;12.20;100.00
12897;BME280;6516;35.028;32.372;2023-03-19T02:23:50;99425.78;;;12.28;100.00
12897;BME280;6516;35.028;32.372;2023-03-19T02:26:23;99434.44;;;12.32;100.00
12897;BME280;6516;35.028;32.372;2023-03-19T02:28:53;99430.06;;;12.31;100.00
12897;BME280;6516;35.028;32.372;2023-03-19T02:31:22;99428.38;;;12.30;100.00
12897;BME280;6516;35.028;32.372;2023-03-19T02:33:58;99425.03;;;12.25;100.00
12897;BME280;6516;35.028;32.372;2023-03-19T02:36:31;99425.22;;;12.19;100.00
12897;BME280;6516;35.028;32.372;2023-03-19T02:39:03;99428.97;;;12.13;100.00
12897;BME280;6516;35.028;32.372;2023-03-19T02:41:36;99433.53;;;12.08;100.00
12897;BME280;6516;35.028;32.372;2023-03-19T02:44:08;99428.16;;;12.11;100.00
12897;BME280;6516;35.028;32.372;2023-03-19T02:46:37;99434.34;;;12.10;100.00
12897;BME280;6516;35.028;32.372;2023-03-19T02:49:05;99434.44;;;12.07;100.00
12897;BME280;6516;35.028;32.372;2023-03-19T02:51:32;99429.28;;;12.04;100.00
12897;BME280;6516;35.028;32.372;2023-03-19T02:54:02;99430.13;;;12.05;100.00
12897;BME280;6516;35.028;32.372;2023-03-19T02:56:30;99431.09;;;12.02;100.00
12897;BME280;6516;35.028;32.372;2023-03-19T02:59:00;99428.53;;;12.01;100.00
12897;BME280;6516;35.028;32.372;2023-03-19T03:01:27;99433.06;;;11.97;100.00
12897;BME280;6516;35.028;32.372;2023-03-19T03:03:55;99433.09;;;11.96;100.00
12897;BME280;6516;35.028;32.372;2023-03-19T03:06:23;99439.34;;;11.93;100.00
12897;BME280;6516;35.028;32.372;2023-03-19T03:08:51;99435.00;;;11.92;100.00
12897;BME280;6516;35.028;32.372;2023-03-19T03:11:19;99429.53;;;11.97;100.00
12897;BME280;6516;35.028;32.372;2023-03-19T03:13:47;99435.69;;;11.97;100.00
12897;BME280;6516;35.028;32.372;2023-03-19T03:16:16;99434.81;;;11.97;100.00
12897;BME280;6516;35.028;32.372;2023-03-19T03:18:44;99429.63;;;11.95;100.00
12897;BME280;6516;35.028;32.372;2023-03-19T03:21:12;99427.88;;;11.94;100.00
12897;BME280;6516;35.028;32.372;2023-03-19T03:23:39;99425.31;;;11.93;100.00
12897;BME280;6516;35.028;32.372;2023-03-19T03:26:07;99423.56;;;11.92;100.00
12897;BME280;6516;35.028;32.372;2023-03-19T03:28:35;99418.28;;;11.92;100.00
12897;BME280;6516;35.028;32.372;2023-03-19T03:31:03;99426.28;;;11.90;100.00
12897;BME280;6516;35.028;32.372;2023-03-19T03:33:32;99429.72;;;11.92;100.00
12897;BME280;6516;35.028;32.372;2023-03-19T03:36:00;99432.19;;;11.97;100.00
12897;BME280;6516;35.028;32.372;2023-03-19T03:38:27;99423.16;;;12.04;100.00
12897;BME280;6516;35.028;32.372;2023-03-19T03:40:57;99422.72;;;12.16;100.00
12897;BME280;6516;35.028;32.372;2023-03-19T03:43:25;99422.44;;;12.23;100.00
12897;BME280;6516;35.028;32.372;2023-03-19T03:45:53;99426.56;;;12.30;100.00
12897;BME280;6516;35.028;32.372;2023-03-19T03:48:21;99425.50;;;12.36;100.00
12897;BME280;6516;35.028;32.372;2023-03-19T03:50:50;99425.16;;;12.45;100.00
12897;BME280;6516;35.028;32.372;2023-03-19T03:53:18;99424.91;;;12.51;100.00
12897;BME280;6516;35.028;32.372;2023-03-19T03:55:46;99428.13;;;12.59;100.00
12897;BME280;6516;35.028;32.372;2023-03-19T03:58:13;99430.44;;;12.68;100.00
12897;BME280;6516;35.028;32.372;2023-03-19T04:00:41;99432.72;;;12.77;100.00
12897;BME280;6516;35.028;32.372;2023-03-19T04:03:09;99421.81;;;12.86;100.00
12897;BME280;6516;35.028;32.372;2023-03-19T04:05:37;99424.22;;;12.92;100.00
12897;BME280;6516;35.028;32.372;2023-03-19T04:08:07;99427.59;;;12.97;100.00
12897;BME280;6516;35.028;32.372;2023-03-19T04:10:34;99428.44;;;12.96;100.00
12897;BME280;6516;35.028;32.372;2023-03-19T04:13:07;99426.78;;;12.93;100.00
12897;BME280;6516;35.028;32.372;2023-03-19T04:15:35;99420.72;;;12.91;100.00
12897;BME280;6516;35.028;32.372;2023-03-19T04:18:03;99422.63;;;12.88;100.00
12897;BME280;6516;35.028;32.372;2023-03-19T04:20:30;99427.91;;;12.88;100.00
12897;BME280;6516;35.028;32.372;2023-03-19T04:22:58;99428.69;;;12.90;100.00
12897;BME280;6516;35.028;32.372;2023-03-19T04:25:28;99434.72;;;12.93;100.00
12897;BME280;6516;35.028;32.372;2023-03-19T04:27:56;99426.75;;;12.95;100.00
12897;BME280;6516;35.028;32.372;2023-03-19T04:30:24;99424.94;;;12.97;100.00
12897;BME280;6516;35.028;32.372;2023-03-19T04:32:52;99422.16;;;13.00;100.00
12897;BME280;6516;35.028;32.372;2023-03-19T04:35:19;99411.28;;;13.07;99.98
12897;BME280;6516;35.028;32.372;2023-03-19T04:37:47;99415.47;;;13.13;99.67
12897;BME280;6516;35.028;32.372;2023-03-19T04:40:15;99416.22;;;13.16;100.00
12897;BME280;6516;35.028;32.372;2023-03-19T04:42:45;99420.28;;;13.25;99.15
12897;BME280;6516;35.028;32.372;2023-03-19T04:45:13;99414.81;;;13.29;98.24
12897;BME280;6516;35.028;32.372;2023-03-19T04:47:41;99419.09;;;13.32;98.66
12897;BME280;6516;35.028;32.372;2023-03-19T04:50:09;99422.69;;;13.31;98.62
12897;BME280;6516;35.028;32.372;2023-03-19T04:52:37;99433.13;;;13.34;98.23
12897;BME280;6516;35.028;32.372;2023-03-19T04:55:06;99430.34;;;13.37;98.45
12897;BME280;6516;35.028;32.372;2023-03-19T04:57:34;99430.34;;;13.37;98.06
12897;BME280;6516;35.028;32.372;2023-03-19T05:00:05;99435.63;;;13.37;96.79
12897;BME280;6516;35.028;32.372;2023-03-19T05:02:34;99424.78;;;13.44;95.85
12897;BME280;6516;35.028;32.372;2023-03-19T05:05:02;99431.88;;;13.42;95.37
12897;BME280;6516;35.028;32.372;2023-03-19T05:07:30;99429.00;;;13.48;94.96
12897;BME280;6516;35.028;32.372;2023-03-19T05:09:58;99425.19;;;13.55;94.02
12897;BME280;6516;35.028;32.372;2023-03-19T05:12:25;99432.13;;;13.58;94.05
12897;BME280;6516;35.028;32.372;2023-03-19T05:14:53;99433.66;;;13.63;92.94
12897;BME280;6516;35.028;32.372;2023-03-19T05:17:22;99438.09;;;13.63;93.56
12897;BME280;6516;35.028;32.372;2023-03-19T05:19:50;99433.41;;;13.69;93.52
12897;BME280;6516;35.028;32.372;2023-03-19T05:22:18;99435.34;;;13.86;92.31
12897;BME280;6516;35.028;32.372;2023-03-19T05:24:47;99432.97;;;14.00;90.68
12897;BME280;6516;35.028;32.372;2023-03-19T05:27:14;99431.72;;;14.08;89.97
12897;BME280;6516;35.028;32.372;2023-03-19T05:29:42;99428.13;;;14.09;89.89
12897;BME280;6516;35.028;32.372;2023-03-19T05:32:11;99418.41;;;14.10;90.86
12897;BME280;6516;35.028;32.372;2023-03-19T05:34:42;99428.84;;;14.13;90.70
12897;BME280;6516;35.028;32.372;2023-03-19T05:37:10;99428.84;;;14.13;90.79
12897;BME280;6516;35.028;32.372;2023-03-19T05:39:37;99432.50;;;14.10;90.02
12897;BME280;6516;35.028;32.372;2023-03-19T05:42:08;99436.69;;;14.16;89.82
12897;BME280;6516;35.028;32.372;2023-03-19T05:44:36;99430.78;;;14.29;90.13
12897;BME280;6516;35.028;32.372;2023-03-19T05:47:04;99431.38;;;14.36;89.94
12897;BME280;6516;35.028;32.372;2023-03-19T05:49:33;99426.97;;;14.36;88.85
12897;BME280;6516;35.028;32.372;2023-03-19T05:52:03;99421.50;;;14.39;88.76
12897;BME280;6516;35.028;32.372;2023-03-19T05:54:31;99427.38;;;14.46;88.40
12897;BME280;6516;35.028;32.372;2023-03-19T05:56:59;99422.84;;;14.68;87.89
12897;BME280;6516;35.028;32.372;2023-03-19T05:59:27;99425.78;;;14.99;86.21
12897;BME280;6516;35.028;32.372;2023-03-19T06:01:55;99426.41;;;15.41;84.66
12897;BME280;6516;35.028;32.372;2023-03-19T06:04:22;99414.69;;;15.63;82.82
12897;BME280;6516;35.028;32.372;2023-03-19T06:06:50;99409.78;;;15.90;80.86
12897;BME280;6516;35.028;32.372;2023-03-19T06:09:19;99407.88;;;16.26;80.62
12897;BME280;6516;35.028;32.372;2023-03-19T06:11:47;99394.13;;;16.67;77.55
12897;BME280;6516;35.028;32.372;2023-03-19T06:14:15;99400.69;;;17.08;77.09
12897;BME280;6516;35.028;32.372;2023-03-19T06:16:43;99409.63;;;17.23;74.60
12897;BME280;6516;35.028;32.372;2023-03-19T06:19:10;99413.19;;;17.06;74.95
12897;BME280;6516;35.028;32.372;2023-03-19T06:21:38;99418.09;;;16.98;72.12
12897;BME280;6516;35.028;32.372;2023-03-19T06:24:06;99421.06;;;16.92;76.20
12897;BME280;6516;35.028;32.372;2023-03-19T06:26:36;99423.81;;;16.75;75.69
12897;BME280;6516;35.028;32.372;2023-03-19T06:29:04;99421.06;;;16.27;77.19
12897;BME280;6516;35.028;32.372;2023-03-19T06:31:32;99416.78;;;15.57;79.19
12897;BME280;6516;35.028;32.372;2023-03-19T06:34:00;99426.03;;;14.94;81.12
12897;BME280;6516;35.028;32.372;2023-03-19T06:36:27;99432.94;;;14.21;86.04
12897;BME280;6516;35.028;32.372;2023-03-19T06:38:55;99432.25;;;13.76;91.42
12897;BME280;6516;35.028;32.372;2023-03-19T06:41:23;99431.16;;;13.39;95.27
12897;BME280;6516;35.028;32.372;2023-03-19T06:43:52;99437.34;;;13.16;98.68
12897;BME280;6516;35.028;32.372;2023-03-19T06:46:20;99437.22;;;12.98;100.00
12897;BME280;6516;35.028;32.372;2023-03-19T06:48:51;99436.06;;;12.82;100.00
12897;BME280;6516;35.028;32.372;2023-03-19T06:51:19;99422.16;;;12.77;100.00
12897;BME280;6516;35.028;32.372;2023-03-19T06:53:47;99431.38;;;12.67;100.00
12897;BME280;6516;35.028;32.372;2023-03-19T06:56:15;99427.50;;;12.52;100.00
12897;BME280;6516;35.028;32.372;2023-03-19T06:58:43;99421.53;;;12.47;100.00
12897;BME280;6516;35.028;32.372;2023-03-19T07:01:12;99417.19;;;12.46;100.00
12897;BME280;6516;35.028;32.372;2023-03-19T07:03:41;99419.94;;;12.43;100.00
12897;BME280;6516;35.028;32.372;2023-03-19T08:20:58;99452.44;;;12.91;100.00
12897;BME280;6516;35.028;32.372;2023-03-19T08:23:27;99457.19;;;13.05;100.00
12897;BME280;6516;35.028;32.372;2023-03-19T08:25:56;99464.28;;;13.04;100.00
12897;BME280;6516;35.028;32.372;2023-03-19T08:28:24;99455.19;;;13.11;100.00
12897;BME280;6516;35.028;32.372;2023-03-19T08:30:52;99451.22;;;13.00;100.00
12897;BME280;6516;35.028;32.372;2023-03-19T08:33:20;99449.28;;;13.05;100.00
12897;BME280;6516;35.028;32.372;2023-03-19T08:35:49;99456.34;;;13.04;100.00
12897;BME280;6516;35.028;32.372;2023-03-19T08:38:18;99448.13;;;13.12;100.00
12897;BME280;6516;35.028;32.372;2023-03-19T08:40:46;99448.84;;;13.37;100.00
12897;BME280;6516;35.028;32.372;2023-03-19T08:43:14;99449.72;;;13.59;100.00
12897;BME280;6516;35.028;32.372;2023-03-19T08:45:42;99448.41;;;13.69;100.00
12897;BME280;6516;35.028;32.372;2023-03-19T08:48:10;99444.72;;;13.73;100.00
12897;BME280;6516;35.028;32.372;2023-03-19T08:50:38;99443.28;;;13.44;100.00
12897;BME280;6516;35.028;32.372;2023-03-19T08:53:05;99456.31;;;13.27;100.00
12897;BME280;6516;35.028;32.372;2023-03-19T08:55:35;99461.22;;;13.15;100.00
12897;BME280;6516;35.028;32.372;2023-03-19T08:58:03;99464.03;;;13.10;100.00
12897;BME280;6516;35.028;32.372;2023-03-19T09:00:31;99468.94;;;12.98;100.00
12897;BME280;6516;35.028;32.372;2023-03-19T09:02:58;99457.50;;;12.96;100.00
12897;BME280;6516;35.028;32.372;2023-03-19T09:05:26;99463.03;;;12.90;100.00
12897;BME280;6516;35.028;32.372;2023-03-19T09:07:54;99461.03;;;12.96;100.00
12897;BME280;6516;35.028;32.372;2023-03-19T09:10:22;99460.72;;;13.05;100.00
12897;BME280;6516;35.028;32.372;2023-03-19T09:12:51;99448.13;;;13.12;100.00
12897;BME280;6516;35.028;32.372;2023-03-19T09:15:19;99454.09;;;13.17;100.00
12897;BME280;6516;35.028;32.372;2023-03-19T09:17:47;99444.56;;;12.90;100.00
12897;BME280;6516;35.028;32.372;2023-03-19T09:20:15;99441.81;;;12.70;100.00
12897;BME280;6516;35.028;32.372;2023-03-19T09:22:43;99447.25;;;12.42;100.00
12897;BME280;6516;35.028;32.372;2023-03-19T09:25:11;99445.22;;;12.26;100.00
12897;BME280;6516;35.028;32.372;2023-03-19T09:27:39;99441.84;;;11.98;100.00
12897;BME280;6516;35.028;32.372;2023-03-19T09:30:09;99441.13;;;11.93;100.00
12897;BME280;6516;35.028;32.372;2023-03-19T09:32:38;99431.03;;;11.79;100.00
12897;BME280;6516;35.028;32.372;2023-03-19T09:35:06;99433.53;;;11.84;100.00
12897;BME280;6516;35.028;32.372;2023-03-19T09:37:35;99428.13;;;11.87;99.65
12897;BME280;6516;35.028;32.372;2023-03-19T09:40:03;99440.78;;;11.77;97.52
12897;BME280;6516;35.028;32.372;2023-03-19T09:42:47;99442.56;;;11.77;97.31
12897;BME280;6516;35.028;32.372;2023-03-19T09:45:23;99452.06;;;11.82;97.32
12897;BME280;6516;35.028;32.372;2023-03-19T09:47:57;99448.31;;;11.88;97.68
12897;BME280;6516;35.028;32.372;2023-03-19T09:50:31;99453.44;;;11.92;97.21
12897;BME280;6516;35.028;32.372;2023-03-19T09:53:04;99447.53;;;11.86;94.60
12897;BME280;6516;35.028;32.372;2023-03-19T09:55:40;99439.19;;;11.73;93.64
12897;BME280;6516;35.028;32.372;2023-03-19T09:58:13;99450.69;;;11.71;93.59
12897;BME280;6516;35.028;32.372;2023-03-19T10:00:47;99442.81;;;11.69;92.23
12897;BME280;6516;35.028;32.372;2023-03-19T10:03:37;99444.44;;;11.73;91.63
12897;BME280;6516;35.028;32.372;2023-03-19T10:06:19;99444.88;;;11.86;89.85
12897;BME280;6516;35.028;32.372;2023-03-19T10:09:14;99443.97;;;11.87;90.74
12897;BME280;6516;35.028;32.372;2023-03-19T10:11:57;99454.69;;;11.82;91.13
12897;BME280;6516;35.028;32.372;2023-03-19T10:14:47;99456.06;;;11.68;92.50
12897;BME280;6516;35.028;32.372;2023-03-19T10:17:32;99465.44;;;11.49;96.71
12897;BME280;6516;35.028;32.372;2023-03-19T10:20:04;99464.31;;;11.30;96.70
12897;BME280;6516;35.028;32.372;2023-03-19T10:22:37;99463.59;;;10.97;99.99
12897;BME280;6516;35.028;32.372;2023-03-19T10:25:12;99466.00;;;10.75;100.00
12897;BME280;6516;35.028;32.372;2023-03-19T10:27:46;99470.13;;;10.55;100.00
12897;BME280;6516;35.028;32.372;2023-03-19T10:30:19;99458.31;;;10.37;100.00
12897;BME280;6516;35.028;32.372;2023-03-19T10:32:52;99463.91;;;10.27;100.00
12897;BME280;6516;35.028;32.372;2023-03-19T10:35:35;99461.38;;;10.22;100.00
12897;BME280;6516;35.028;32.372;2023-03-19T10:38:16;99470.06;;;10.26;100.00
12897;BME280;6516;35.028;32.372;2023-03-19T10:40:55;99454.06;;;10.33;100.00
12897;BME280;6516;35.028;32.372;2023-03-19T10:43:31;99444.91;;;10.46;100.00
12897;BME280;6516;35.028;32.372;2023-03-19T10:45:59;99457.13;;;10.49;100.00
12897;BME280;6516;35.028;32.372;2023-03-19T10:48:28;99449.16;;;10.52;100.00
12897;BME280;6516;35.028;32.372;2023-03-19T10:50:58;99447.72;;;10.40;100.00
12897;BME280;6516;35.028;32.372;2023-03-19T10:53:32;99450.69;;;10.28;100.00
12897;BME280;6516;35.028;32.372;2023-03-19T10:56:02;99445.50;;;10.27;100.00
12897;BME280;6516;35.028;32.372;2023-03-19T10:58:33;99446.28;;;10.30;100.00
12897;BME280;6516;35.028;32.372;2023-03-19T11:01:06;99441.03;;;10.29;100.00
12897;BME280;6516;35.028;32.372;2023-03-19T11:03:38;99435.75;;;10.30;100.00
12897;BME280;6516;35.028;32.372;2023-03-19T11:06:16;99418.06;;;10.35;100.00
12897;BME280;6516;35.028;32.372;2023-03-19T11:08:54;99403.16;;;10.36;100.00
12897;BME280;6516;35.028;32.372;2023-03-19T11:11:25;99412.34;;;10.21;100.00
12897;BME280;6516;35.028;32.372;2023-03-19T11:14:05;99415.31;;;10.08;100.00
12897;BME280;6516;35.028;32.372;2023-03-19T11:16:49;99410.13;;;10.06;100.00
12897;BME280;6516;35.028;32.372;2023-03-19T11:19:25;99405.88;;;10.01;100.00
12897;BME280;6516;35.028;32.372;2023-03-19T11:22:07;99397.88;;;10.05;100.00
12897;BME280;6516;35.028;32.372;2023-03-19T11:24:40;99386.25;;;10.14;100.00
12897;BME280;6516;35.028;32.372;2023-03-19T11:27:09;99390.06;;;10.02;100.00
12897;BME280;6516;35.028;32.372;2023-03-19T11:29:40;99384.72;;;10.05;100.00
12897;BME280;6516;35.028;32.372;2023-03-19T11:32:22;99383.97;;;10.00;100.00
12897;BME280;6516;35.028;32.372;2023-03-19T11:35:00;99375.94;;;10.06;100.00
12897;BME280;6516;35.028;32.372;2023-03-19T11:37:46;99368.88;;;10.08;100.00
12897;BME280;6516;35.028;32.372;2023-03-19T11:40:28;99350.50;;;10.07;100.00
12897;BME280;6516;35.028;32.372;2023-03-19T11:46:17;99347.34;;;10.25;100.00
12897;BME280;6516;35.028;32.372;2023-03-19T11:49:06;99334.91;;;10.30;100.00
12897;BME280;6516;35.028;32.372;2023-03-19T11:52:00;99337.13;;;10.43;100.00
12897;BME280;6516;35.028;32.372;2023-03-19T11:54:42;99330.75;;;10.50;100.00
12897;BME280;6516;35.028;32.372;2023-03-19T11:57:19;99335.56;;;10.65;100.00
12897;BME280;6516;35.028;32.372;2023-03-19T12:00:05;99337.34;;;10.65;100.00
12897;BME280;6516;35.028;32.372;2023-03-19T12:02:52;99334.50;;;10.71;100.00
12897;BME280;6516;35.028;32.372;2023-03-19T12:05:45;99341.97;;;10.84;100.00
12897;BME280;6516;35.028;32.372;2023-03-19T12:08:29;99337.78;;;11.05;100.00
12897;BME280;6516;35.028;32.372;2023-03-19T12:11:15;99336.94;;;11.31;100.00
12897;BME280;6516;35.028;32.372;2023-03-19T12:13:58;99332.59;;;11.54;100.00
12897;BME280;6516;35.028;32.372;2023-03-19T12:16:43;99329.19;;;11.77;100.00
12897;BME280;6516;35.028;32.372;2023-03-19T12:19:48;99336.19;;;12.01;100.00
12897;BME280;6516;35.028;32.372;2023-03-19T12:22:44;99327.88;;;12.34;100.00
12897;BME280;6516;35.028;32.372;2023-03-19T12:25:29;99319.41;;;12.49;100.00
12897;BME280;6516;35.028;32.372;2023-03-19T12:28:11;99316.47;;;12.57;100.00
12897;BME280;6516;35.028;32.372;2023-03-19T12:30:44;99320.44;;;12.67;100.00
12897;BME280;6516;35.028;32.372;2023-03-19T12:33:32;99310.59;;;12.92;100.00
12897;BME280;6516;35.028;32.372;2023-03-19T12:36:08;99314.44;;;13.06;100.00
12897;BME280;6516;35.028;32.372;2023-03-19T12:38:40;99309.66;;;13.16;100.00
12897;BME280;6516;35.028;32.372;2023-03-19T12:41:17;99317.88;;;13.30;100.00
12897;BME280;6516;35.028;32.372;2023-03-19T12:43:52;99314.91;;;13.37;100.00
12897;BME280;6516;35.028;32.372;2023-03-19T12:46:26;99310.59;;;13.55;100.00
12897;BME280;6516;35.028;32.372;2023-03-19T12:49:01;99312.84;;;13.64;100.00
12897;BME280;6516;35.028;32.372;2023-03-19T12:51:35;99309.84;;;13.71;100.00
12897;BME280;6516;35.028;32.372;2023-03-19T12:54:10;99314.50;;;13.46;100.00
12897;BME280;6516;35.028;32.372;2023-03-19T12:56:46;99316.50;;;13.41;100.00
12897;BME280;6516;35.028;32.372;2023-03-19T12:59:24;99308.81;;;13.55;100.00
12897;BME280;6516;35.028;32.372;2023-03-19T13:01:58;99312.59;;;13.50;100.00
12897;BME280;6516;35.028;32.372;2023-03-19T13:04:32;99308.59;;;13.60;100.00
12897;BME280;6516;35.028;32.372;2023-03-19T13:07:07;99311.91;;;13.45;100.00
12897;BME280;6516;35.028;32.372;2023-03-19T13:09:41;99309.56;;;13.39;100.00
12897;BME280;6516;35.028;32.372;2023-03-19T13:12:15;99297.88;;;13.44;100.00
12897;BME280;6516;35.028;32.372;2023-03-19T13:14:50;99288.38;;;13.19;100.00
12897;BME280;6516;35.028;32.372;2023-03-19T13:17:28;99279.78;;;13.14;100.00
12897;BME280;6516;35.028;32.372;2023-03-19T13:20:06;99275.69;;;13.07;100.00
12897;BME280;6516;35.028;32.372;2023-03-19T13:22:55;99268.47;;;13.10;100.00
12897;BME280;6516;35.028;32.372;2023-03-19T13:25:31;99267.56;;;13.11;100.00
12897;BME280;6516;35.028;32.372;2023-03-19T13:28:05;99273.88;;;12.86;100.00
12897;BME280;6516;35.028;32.372;2023-03-19T13:30:36;99267.38;;;12.73;100.00
12897;BME280;6516;35.028;32.372;2023-03-19T13:33:06;99273.88;;;12.86;100.00
12897;BME280;6516;35.028;32.372;2023-03-19T13:35:42;99270.78;;;12.76;100.00
12897;BME280;6516;35.028;32.372;2023-03-19T13:38:17;99268.03;;;12.78;100.00
12897;BME280;6516;35.028;32.372;2023-03-19T13:40:48;99261.84;;;12.36;100.00
12897;BME280;6516;35.028;32.372;2023-03-19T13:43:42;99267.44;;;12.28;100.00
12897;BME280;6516;35.028;32.372;2023-03-19T13:46:42;99266.44;;;12.31;100.00
12897;BME280;6516;35.028;32.372;2023-03-19T13:49:28;99265.34;;;12.36;100.00
12897;BME280;6516;35.028;32.372;2023-03-19T13:55:28;99267.63;;;12.67;100.00
12897;BME280;6516;35.028;32.372;2023-03-19T13:58:05;99275.47;;;12.90;100.00
12897;BME280;6516;35.028;32.372;2023-03-19T14:01:04;99279.00;;;13.12;100.00
12897;BME280;6516;35.028;32.372;2023-03-19T14:03:34;99284.00;;;13.18;100.00
12897;BME280;6516;35.028;32.372;2023-03-19T14:06:03;99292.88;;;13.17;100.00
12897;BME280;6516;35.028;32.372;2023-03-19T14:08:40;99300.56;;;13.01;100.00
12897;BME280;6516;35.028;32.372;2023-03-19T14:11:21;99301.63;;;12.96;100.00
12897;BME280;6516;35.028;32.372;2023-03-19T14:13:51;99305.69;;;12.83;100.00
12897;BME280;6516;35.028;32.372;2023-03-19T14:16:23;99303.16;;;12.81;100.00
12897;BME280;6516;35.028;32.372;2023-03-19T14:18:56;99302.53;;;12.75;100.00
12897;BME280;6516;35.028;32.372;2023-03-19T14:21:40;99302.38;;;12.78;100.00
12897;BME280;6516;35.028;32.372;2023-03-19T14:24:36;99304.88;;;13.04;95.57
12897;BME280;6516;35.028;32.372;2023-03-19T14:27:13;99297.09;;;13.21;93.36
12897;BME280;6516;35.028;32.372;2023-03-19T14:29:43;99291.97;;;13.38;90.52
12897;BME280;6516;35.028;32.372;2023-03-19T14:32:16;99298.19;;;13.57;89.04
12897;BME280;6516;35.028;32.372;2023-03-19T14:34:46;99293.44;;;13.65;89.08
12897;BME280;6516;35.028;32.372;2023-03-19T14:37:20;99290.56;;;13.69;89.65
12897;BME280;6516;35.028;32.372;2023-03-19T14:39:53;99294.44;;;13.81;88.84